Portada
METAR-TAF:

METAR-TAF

Aeroports :

Colmenar Viejo, Espanya

latitud: 40-39N, longitud: 003-44W, altitud: -999 m

Observació

L'informe es va fer fa 10 hores i 59 minuts, a les 18:00 UTC
Vent 7 kt del Nord/Nord-Est amb ràfegues de 18 kt
Temperatura 10°C
Humitat 46%
Pressió 1024 hPa
Visibilitat 10 km o més
Escasses núvols a una alçada de 5000 ft

METAR: LECV 191800Z 02007G18KT 9999 FEW050 10/M01 Q1024

Hora: 05:59 (04:59 UTC)

Pronòstic

L'informe es va fer fa 11 hores i 59 minuts, a les 17:00 UTC
Pronòstic vàlid del 19 a les 18 UTC al 20 a les 03 UTC
Vent 14 kt del Nord-Est
Visibilitat 10 km o més
Núvols disperses a una alçada de 5000 ft

TAF: LECV 191700Z 1918/2003 05014KT 9999 SCT050

Observacions i pronòstics meteorològics de més de 4000 aeroports (METAR i TAF).

Les estacions disponibles són els punts grocs i vermells al mapa.

Posi el ratolí al punt desitjat per veure el nom de l'estació.

Feu clic per veure les observacions i els pronòstics meteorològics.

Per canviar el mapa: feu clic els botons verds amb una creu de color negre per apropar; al botó verd amb un guió per allunyar la imatge; o en les fletxes verdes per a mapes adjacents.


METAR-TAF: